sensor_id;sensor_type;location;lat;lon;timestamp;pressure;altitude;pressure_sealevel;temperature;humidity
14120;BME280;7138;49.246;9.100;2023-04-26T00:01:58;98791.97;;;8.89;79.58
14120;BME280;7138;49.246;9.100;2023-04-26T00:04:25;98797.16;;;8.90;79.18
14120;BME280;7138;49.246;9.100;2023-04-26T00:06:53;98795.44;;;8.92;79.13
14120;BME280;7138;49.246;9.100;2023-04-26T00:09:19;98792.00;;;8.92;78.60
14120;BME280;7138;49.246;9.100;2023-04-26T00:11:45;98792.00;;;8.95;79.15
14120;BME280;7138;49.246;9.100;2023-04-26T00:14:11;98795.44;;;8.94;79.87
14120;BME280;7138;49.246;9.100;2023-04-26T00:16:37;98797.97;;;8.91;80.69
14120;BME280;7138;49.246;9.100;2023-04-26T00:19:04;98794.53;;;8.86;80.86
14120;BME280;7138;49.246;9.100;2023-04-26T00:21:30;98795.38;;;8.83;80.78
14120;BME280;7138;49.246;9.100;2023-04-26T00:23:56;98796.22;;;8.81;80.56
14120;BME280;7138;49.246;9.100;2023-04-26T00:26:23;98799.59;;;8.76;80.90
14120;BME280;7138;49.246;9.100;2023-04-26T00:28:49;98799.56;;;8.70;80.04
14120;BME280;7138;49.246;9.100;2023-04-26T00:31:15;98799.56;;;8.69;79.85
14120;BME280;7138;49.246;9.100;2023-04-26T00:33:42;98803.84;;;8.68;79.25
14120;BME280;7138;49.246;9.100;2023-04-26T00:36:11;98805.53;;;8.65;79.49
14120;BME280;7138;49.246;9.100;2023-04-26T00:38:37;98814.94;;;8.61;79.28
14120;BME280;7138;49.246;9.100;2023-04-26T00:41:03;98809.75;;;8.58;79.61
14120;BME280;7138;49.246;9.100;2023-04-26T00:43:30;98808.00;;;8.54;79.45
14120;BME280;7138;49.246;9.100;2023-04-26T00:45:55;98808.84;;;8.52;79.75
14120;BME280;7138;49.246;9.100;2023-04-26T00:48:22;98812.25;;;8.49;79.68
14120;BME280;7138;49.246;9.100;2023-04-26T00:50:48;98807.88;;;8.42;80.18
14120;BME280;7138;49.246;9.100;2023-04-26T00:53:16;98810.41;;;8.36;80.12
14120;BME280;7138;49.246;9.100;2023-04-26T00:55:44;98814.66;;;8.30;81.58
14120;BME280;7138;49.246;9.100;2023-04-26T00:58:10;98818.00;;;8.25;81.17
14120;BME280;7138;49.246;9.100;2023-04-26T01:00:36;98816.22;;;8.21;81.29
14120;BME280;7138;49.246;9.100;2023-04-26T01:03:03;98809.34;;;8.19;81.89
14120;BME280;7138;49.246;9.100;2023-04-26T01:05:29;98816.19;;;8.18;82.31
14120;BME280;7138;49.246;9.100;2023-04-26T01:07:55;98814.50;;;8.17;81.63
14120;BME280;7138;49.246;9.100;2023-04-26T01:10:22;98813.59;;;8.15;81.65
14120;BME280;7138;49.246;9.100;2023-04-26T01:12:49;98817.00;;;8.11;82.39
14120;BME280;7138;49.246;9.100;2023-04-26T01:15:15;98821.25;;;8.08;82.65
14120;BME280;7138;49.246;9.100;2023-04-26T01:17:45;98820.34;;;8.04;81.65
14120;BME280;7138;49.246;9.100;2023-04-26T01:20:13;98822.81;;;7.95;82.17
14120;BME280;7138;49.246;9.100;2023-04-26T01:22:40;98825.31;;;7.89;82.33
14120;BME280;7138;49.246;9.100;2023-04-26T01:25:10;98826.13;;;7.84;82.36
14120;BME280;7138;49.246;9.100;2023-04-26T01:27:36;98830.31;;;7.77;82.22
14120;BME280;7138;49.246;9.100;2023-04-26T01:30:04;98824.22;;;7.72;83.09
14120;BME280;7138;49.246;9.100;2023-04-26T01:32:30;98827.69;;;7.72;82.87
14120;BME280;7138;49.246;9.100;2023-04-26T01:34:59;98822.50;;;7.68;82.76
14120;BME280;7138;49.246;9.100;2023-04-26T01:37:25;98817.25;;;7.62;83.39
14120;BME280;7138;49.246;9.100;2023-04-26T01:39:52;98826.66;;;7.58;84.00
14120;BME280;7138;49.246;9.100;2023-04-26T01:42:18;98824.81;;;7.50;83.87
14120;BME280;7138;49.246;9.100;2023-04-26T01:44:44;98820.47;;;7.46;84.49
14120;BME280;7138;49.246;9.100;2023-04-26T01:47:10;98820.47;;;7.46;84.04
14120;BME280;7138;49.246;9.100;2023-04-26T01:49:36;98817.03;;;7.44;84.51
14120;BME280;7138;49.246;9.100;2023-04-26T01:52:02;98815.16;;;7.34;85.32
14120;BME280;7138;49.246;9.100;2023-04-26T01:54:28;98816.81;;;7.29;85.66
14120;BME280;7138;49.246;9.100;2023-04-26T01:56:55;98809.88;;;7.23;86.10
14120;BME280;7138;49.246;9.100;2023-04-26T01:59:21;98814.94;;;7.17;85.39
14120;BME280;7138;49.246;9.100;2023-04-26T02:01:46;98808.84;;;7.12;86.46
14120;BME280;7138;49.246;9.100;2023-04-26T02:04:13;98817.38;;;7.09;85.77
14120;BME280;7138;49.246;9.100;2023-04-26T02:06:38;98813.91;;;7.06;85.61
14120;BME280;7138;49.246;9.100;2023-04-26T02:09:06;98806.13;;;7.03;86.27
14120;BME280;7138;49.246;9.100;2023-04-26T02:11:33;98797.31;;;6.87;87.67
14120;BME280;7138;49.246;9.100;2023-04-26T02:16:38;98805.91;;;6.88;86.04
14120;BME280;7138;49.246;9.100;2023-04-26T02:19:05;98817.00;;;6.84;85.41
14120;BME280;7138;49.246;9.100;2023-04-26T02:21:53;98811.00;;;6.83;86.63
14120;BME280;7138;49.246;9.100;2023-04-26T02:24:19;98823.59;;;6.68;87.41
14120;BME280;7138;49.246;9.100;2023-04-26T02:26:46;98812.25;;;6.57;87.64
14120;BME280;7138;49.246;9.100;2023-04-26T02:29:11;98813.00;;;6.50;87.71
14120;BME280;7138;49.246;9.100;2023-04-26T02:31:39;98819.03;;;6.50;87.04
14120;BME280;7138;49.246;9.100;2023-04-26T02:34:04;98824.16;;;6.50;86.63
14120;BME280;7138;49.246;9.100;2023-04-26T02:36:31;98815.53;;;6.48;86.64
14120;BME280;7138;49.246;9.100;2023-04-26T02:38:57;98824.09;;;6.49;86.76
14120;BME280;7138;49.246;9.100;2023-04-26T02:41:23;98825.81;;;6.48;85.63
14120;BME280;7138;49.246;9.100;2023-04-26T02:43:49;98823.22;;;6.47;86.37
14120;BME280;7138;49.246;9.100;2023-04-26T02:46:15;98823.19;;;6.45;85.70
14120;BME280;7138;49.246;9.100;2023-04-26T02:48:42;98824.00;;;6.44;86.52
14120;BME280;7138;49.246;9.100;2023-04-26T02:51:08;98825.69;;;6.41;86.56
14120;BME280;7138;49.246;9.100;2023-04-26T02:53:34;98819.56;;;6.34;86.55
14120;BME280;7138;49.246;9.100;2023-04-26T02:56:00;98816.81;;;6.24;87.87
14120;BME280;7138;49.246;9.100;2023-04-26T02:58:26;98826.91;;;6.15;87.83
14120;BME280;7138;49.246;9.100;2023-04-26T03:00:52;98819.97;;;6.09;88.10
14120;BME280;7138;49.246;9.100;2023-04-26T03:03:19;98821.59;;;6.04;88.13
14120;BME280;7138;49.246;9.100;2023-04-26T03:05:46;98816.34;;;5.98;88.47
14120;BME280;7138;49.246;9.100;2023-04-26T03:08:12;98809.44;;;5.95;89.08
14120;BME280;7138;49.246;9.100;2023-04-26T03:10:37;98798.94;;;5.85;88.62
14120;BME280;7138;49.246;9.100;2023-04-26T03:13:03;98814.53;;;5.94;88.72
14120;BME280;7138;49.246;9.100;2023-04-26T03:15:29;98812.72;;;5.90;88.65
14120;BME280;7138;49.246;9.100;2023-04-26T03:17:55;98819.59;;;5.89;88.71
14120;BME280;7138;49.246;9.100;2023-04-26T03:20:22;98820.41;;;5.88;88.12
14120;BME280;7138;49.246;9.100;2023-04-26T03:22:49;98818.72;;;5.89;87.28
14120;BME280;7138;49.246;9.100;2023-04-26T03:25:16;98822.03;;;5.85;87.46
14120;BME280;7138;49.246;9.100;2023-04-26T03:27:42;98817.72;;;5.84;88.67
14120;BME280;7138;49.246;9.100;2023-04-26T03:30:08;98817.63;;;5.79;89.09
14120;BME280;7138;49.246;9.100;2023-04-26T03:32:34;98824.47;;;5.79;89.06
14120;BME280;7138;49.246;9.100;2023-04-26T03:35:00;98821.78;;;5.73;88.72
14120;BME280;7138;49.246;9.100;2023-04-26T03:37:26;98828.59;;;5.72;89.21
14120;BME280;7138;49.246;9.100;2023-04-26T03:39:53;98823.44;;;5.71;88.81
14120;BME280;7138;49.246;9.100;2023-04-26T03:42:19;98819.09;;;5.67;89.59
14120;BME280;7138;49.246;9.100;2023-04-26T03:44:45;98825.03;;;5.66;88.59
14120;BME280;7138;49.246;9.100;2023-04-26T03:47:11;98824.16;;;5.64;88.35
14120;BME280;7138;49.246;9.100;2023-04-26T03:49:39;98821.56;;;5.62;87.46
14120;BME280;7138;49.246;9.100;2023-04-26T03:52:05;98824.16;;;5.64;87.78
14120;BME280;7138;49.246;9.100;2023-04-26T03:54:33;98824.97;;;5.63;87.56
14120;BME280;7138;49.246;9.100;2023-04-26T03:57:00;98831.78;;;5.61;88.06
14120;BME280;7138;49.246;9.100;2023-04-26T03:59:28;98833.47;;;5.60;87.96
14120;BME280;7138;49.246;9.100;2023-04-26T04:01:54;98823.97;;;5.55;88.00
14120;BME280;7138;49.246;9.100;2023-04-26T04:04:20;98834.16;;;5.51;87.83
14120;BME280;7138;49.246;9.100;2023-04-26T04:06:46;98837.53;;;5.50;88.13
14120;BME280;7138;49.246;9.100;2023-04-26T04:09:12;98835.75;;;5.46;88.19
14120;BME280;7138;49.246;9.100;2023-04-26T04:11:38;98846.03;;;5.46;88.21
14120;BME280;7138;49.246;9.100;2023-04-26T04:14:05;98828.88;;;5.44;88.51
14120;BME280;7138;49.246;9.100;2023-04-26T04:16:32;98833.13;;;5.43;87.86
14120;BME280;7138;49.246;9.100;2023-04-26T04:18:57;98838.28;;;5.45;88.33
14120;BME280;7138;49.246;9.100;2023-04-26T04:21:23;98837.41;;;5.43;87.62
14120;BME280;7138;49.246;9.100;2023-04-26T04:23:49;98838.22;;;5.42;87.54
14120;BME280;7138;49.246;9.100;2023-04-26T04:26:15;98833.88;;;5.39;88.25
14120;BME280;7138;49.246;9.100;2023-04-26T04:28:42;98831.31;;;5.39;88.41
14120;BME280;7138;49.246;9.100;2023-04-26T04:31:10;98839.03;;;5.39;88.51
14120;BME280;7138;49.246;9.100;2023-04-26T04:33:37;98835.56;;;5.37;88.51
14120;BME280;7138;49.246;9.100;2023-04-26T04:36:04;98838.94;;;5.36;88.54
14120;BME280;7138;49.246;9.100;2023-04-26T04:38:31;98846.66;;;5.36;88.10
14120;BME280;7138;49.246;9.100;2023-04-26T04:40:57;98850.91;;;5.36;88.97
14120;BME280;7138;49.246;9.100;2023-04-26T04:43:23;98844.06;;;5.36;88.92
14120;BME280;7138;49.246;9.100;2023-04-26T04:45:48;98838.13;;;5.37;88.47
14120;BME280;7138;49.246;9.100;2023-04-26T04:48:16;98854.47;;;5.42;89.04
14120;BME280;7138;49.246;9.100;2023-04-26T04:50:43;98841.72;;;5.45;89.12
14120;BME280;7138;49.246;9.100;2023-04-26T04:53:09;98846.91;;;5.48;88.35
14120;BME280;7138;49.246;9.100;2023-04-26T04:55:35;98844.53;;;5.58;88.49
14120;BME280;7138;49.246;9.100;2023-04-26T04:58:03;98835.59;;;5.79;89.80
14120;BME280;7138;49.246;9.100;2023-04-26T05:00:30;98842.41;;;6.19;89.63
14120;BME280;7138;49.246;9.100;2023-04-26T05:02:56;98844.97;;;6.66;88.61
14120;BME280;7138;49.246;9.100;2023-04-26T05:05:23;98839.00;;;7.22;87.90
14120;BME280;7138;49.246;9.100;2023-04-26T05:07:49;98845.88;;;7.88;86.60
14120;BME280;7138;49.246;9.100;2023-04-26T05:10:15;98844.06;;;8.53;84.38
14120;BME280;7138;49.246;9.100;2023-04-26T05:12:41;98849.78;;;9.18;82.32
14120;BME280;7138;49.246;9.100;2023-04-26T05:15:07;98849.31;;;9.81;80.92
14120;BME280;7138;49.246;9.100;2023-04-26T05:17:34;98847.81;;;10.37;78.75
14120;BME280;7138;49.246;9.100;2023-04-26T05:19:59;98856.53;;;10.91;77.57
14120;BME280;7138;49.246;9.100;2023-04-26T05:22:29;98863.38;;;11.43;75.96
14120;BME280;7138;49.246;9.100;2023-04-26T05:24:55;98864.97;;;12.02;74.92
14120;BME280;7138;49.246;9.100;2023-04-26T05:27:21;98861.22;;;12.64;73.80
14120;BME280;7138;49.246;9.100;2023-04-26T05:29:47;98862.53;;;13.21;72.05
14120;BME280;7138;49.246;9.100;2023-04-26T05:32:13;98873.34;;;13.69;70.19
14120;BME280;7138;49.246;9.100;2023-04-26T05:34:40;98874.47;;;14.20;69.02
14120;BME280;7138;49.246;9.100;2023-04-26T05:37:06;98875.75;;;14.58;67.94
14120;BME280;7138;49.246;9.100;2023-04-26T05:39:33;98882.13;;;14.97;67.23
14120;BME280;7138;49.246;9.100;2023-04-26T05:41:59;98878.00;;;15.36;66.71
14120;BME280;7138;49.246;9.100;2023-04-26T05:44:26;98881.47;;;15.87;65.28
14120;BME280;7138;49.246;9.100;2023-04-26T05:46:54;98882.94;;;16.01;64.39
14120;BME280;7138;49.246;9.100;2023-04-26T05:49:20;98880.91;;;16.15;63.62
14120;BME280;7138;49.246;9.100;2023-04-26T05:51:47;98868.81;;;16.51;63.10
14120;BME280;7138;49.246;9.100;2023-04-26T05:54:13;98879.09;;;16.62;62.69
14120;BME280;7138;49.246;9.100;2023-04-26T05:56:40;98880.13;;;16.52;63.22
14120;BME280;7138;49.246;9.100;2023-04-26T05:59:07;98888.91;;;16.48;62.93
14120;BME280;7138;49.246;9.100;2023-04-26T06:01:34;98883.75;;;16.45;63.39
14120;BME280;7138;49.246;9.100;2023-04-26T06:03:59;98882.69;;;16.56;63.35
14120;BME280;7138;49.246;9.100;2023-04-26T06:06:25;98884.31;;;16.62;62.37
14120;BME280;7138;49.246;9.100;2023-04-26T06:08:52;98882.56;;;16.61;62.35
14120;BME280;7138;49.246;9.100;2023-04-26T06:11:18;98887.22;;;16.47;61.91
14120;BME280;7138;49.246;9.100;2023-04-26T06:13:45;98890.22;;;16.28;62.10
14120;BME280;7138;49.246;9.100;2023-04-26T06:16:11;98897.13;;;16.29;63.02
14120;BME280;7138;49.246;9.100;2023-04-26T06:18:37;98881.94;;;16.48;62.74
14120;BME280;7138;49.246;9.100;2023-04-26T06:21:04;98891.03;;;16.72;62.37
14120;BME280;7138;49.246;9.100;2023-04-26T06:23:30;98899.69;;;16.74;62.09
14120;BME280;7138;49.246;9.100;2023-04-26T06:25:55;98897.44;;;16.59;62.64
14120;BME280;7138;49.246;9.100;2023-04-26T06:28:21;98894.97;;;16.50;62.96
14120;BME280;7138;49.246;9.100;2023-04-26T06:30:48;98900.53;;;16.34;63.43
14120;BME280;7138;49.246;9.100;2023-04-26T06:33:14;98903.31;;;16.25;63.74
14120;BME280;7138;49.246;9.100;2023-04-26T06:35:41;98903.69;;;16.06;63.80
14120;BME280;7138;49.246;9.100;2023-04-26T06:38:07;98898.13;;;15.78;64.70
14120;BME280;7138;49.246;9.100;2023-04-26T06:40:33;98903.63;;;15.64;63.63
14120;BME280;7138;49.246;9.100;2023-04-26T06:43:01;98904.81;;;15.44;65.12
14120;BME280;7138;49.246;9.100;2023-04-26T06:45:28;98903.50;;;15.17;65.15
14120;BME280;7138;49.246;9.100;2023-04-26T06:47:55;98903.81;;;14.97;64.69
14120;BME280;7138;49.246;9.100;2023-04-26T06:50:21;98904.91;;;14.81;65.26
14120;BME280;7138;49.246;9.100;2023-04-26T06:52:47;98907.59;;;14.75;67.26
14120;BME280;7138;49.246;9.100;2023-04-26T06:55:13;98902.44;;;14.72;66.96
14120;BME280;7138;49.246;9.100;2023-04-26T06:57:40;98899.84;;;14.73;66.35
14120;BME280;7138;49.246;9.100;2023-04-26T07:00:07;98895.34;;;14.83;67.14
14120;BME280;7138;49.246;9.100;2023-04-26T07:02:34;98898.59;;;14.97;66.14
14120;BME280;7138;49.246;9.100;2023-04-26T07:05:01;98891.63;;;14.99;65.65
14120;BME280;7138;49.246;9.100;2023-04-26T07:07:27;98893.28;;;15.05;64.69
14120;BME280;7138;49.246;9.100;2023-04-26T07:09:53;98885.50;;;15.02;63.43
14120;BME280;7138;49.246;9.100;2023-04-26T07:12:18;98889.13;;;14.93;63.86
14120;BME280;7138;49.246;9.100;2023-04-26T07:14:45;98886.56;;;14.90;65.81
14120;BME280;7138;49.246;9.100;2023-04-26T07:17:11;98883.03;;;14.93;64.98
14120;BME280;7138;49.246;9.100;2023-04-26T07:19:37;98867.50;;;14.87;62.62
14120;BME280;7138;49.246;9.100;2023-04-26T07:22:04;98885.69;;;14.90;60.78
14120;BME280;7138;49.246;9.100;2023-04-26T07:24:30;98878.59;;;14.99;62.67
14120;BME280;7138;49.246;9.100;2023-04-26T07:26:56;98884.47;;;15.12;62.60
14120;BME280;7138;49.246;9.100;2023-04-26T07:29:22;98883.53;;;15.17;61.92
14120;BME280;7138;49.246;9.100;2023-04-26T07:31:48;98880.00;;;15.21;61.15
14120;BME280;7138;49.246;9.100;2023-04-26T07:34:14;98873.97;;;15.19;61.91
14120;BME280;7138;49.246;9.100;2023-04-26T07:36:40;98873.81;;;15.27;63.79
14120;BME280;7138;49.246;9.100;2023-04-26T07:39:07;98862.47;;;15.31;62.89
14120;BME280;7138;49.246;9.100;2023-04-26T07:41:35;98878.81;;;15.41;64.41
14120;BME280;7138;49.246;9.100;2023-04-26T07:44:01;98879.50;;;15.52;63.17
14120;BME280;7138;49.246;9.100;2023-04-26T07:46:27;98876.69;;;15.64;63.08
14120;BME280;7138;49.246;9.100;2023-04-26T07:48:53;98874.91;;;15.66;62.65
14120;BME280;7138;49.246;9.100;2023-04-26T07:51:18;98879.00;;;15.80;62.78
14120;BME280;7138;49.246;9.100;2023-04-26T07:53:44;98883.00;;;15.98;64.16
14120;BME280;7138;49.246;9.100;2023-04-26T07:56:11;98875.84;;;16.08;63.81
14120;BME280;7138;49.246;9.100;2023-04-26T07:58:37;98882.69;;;16.13;60.72
14120;BME280;7138;49.246;9.100;2023-04-26T08:01:04;98883.69;;;16.08;61.94
14120;BME280;7138;49.246;9.100;2023-04-26T08:03:30;98882.09;;;15.99;59.92
14120;BME280;7138;49.246;9.100;2023-04-26T08:05:57;98879.41;;;16.02;60.55
14120;BME280;7138;49.246;9.100;2023-04-26T08:08:26;98882.13;;;15.98;58.37
14120;BME280;7138;49.246;9.100;2023-04-26T08:10:52;98888.97;;;16.03;58.27
14120;BME280;7138;49.246;9.100;2023-04-26T08:13:19;98880.97;;;16.12;60.57
14120;BME280;7138;49.246;9.100;2023-04-26T08:15:46;98892.97;;;16.21;60.92
14120;BME280;7138;49.246;9.100;2023-04-26T08:18:12;98891.19;;;16.23;57.92
14120;BME280;7138;49.246;9.100;2023-04-26T08:20:38;98891.84;;;16.32;60.42
14120;BME280;7138;49.246;9.100;2023-04-26T08:23:04;98880.50;;;16.35;58.63
14120;BME280;7138;49.246;9.100;2023-04-26T08:25:30;98883.88;;;16.40;57.45
14120;BME280;7138;49.246;9.100;2023-04-26T08:27:55;98888.03;;;16.49;60.26
14120;BME280;7138;49.246;9.100;2023-04-26T08:30:23;98881.63;;;16.65;56.24
14120;BME280;7138;49.246;9.100;2023-04-26T08:32:49;98886.53;;;16.78;55.60
14120;BME280;7138;49.246;9.100;2023-04-26T08:35:15;98884.09;;;16.71;55.49
14120;BME280;7138;49.246;9.100;2023-04-26T08:37:41;98893.09;;;16.58;56.51
14120;BME280;7138;49.246;9.100;2023-04-26T08:40:08;98891.53;;;16.48;55.56
14120;BME280;7138;49.246;9.100;2023-04-26T08:42:39;98885.47;;;16.47;57.44
14120;BME280;7138;49.246;9.100;2023-04-26T08:45:07;98882.75;;;16.52;57.71
14120;BME280;7138;49.246;9.100;2023-04-26T08:47:42;98879.75;;;16.71;58.86
14120;BME280;7138;49.246;9.100;2023-04-26T08:50:11;98879.47;;;16.83;57.63
14120;BME280;7138;49.246;9.100;2023-04-26T08:52:40;98879.13;;;16.99;58.75
14120;BME280;7138;49.246;9.100;2023-04-26T08:55:08;98878.91;;;17.06;57.71
14120;BME280;7138;49.246;9.100;2023-04-26T08:57:35;98873.94;;;17.32;56.95
14120;BME280;7138;49.246;9.100;2023-04-26T09:00:03;98870.94;;;17.47;56.95
14120;BME280;7138;49.246;9.100;2023-04-26T09:02:30;98865.41;;;17.60;57.22
14120;BME280;7138;49.246;9.100;2023-04-26T09:04:58;98865.94;;;17.72;55.88
14120;BME280;7138;49.246;9.100;2023-04-26T09:07:30;98867.38;;;17.84;54.92
14120;BME280;7138;49.246;9.100;2023-04-26T09:09:58;98864.19;;;18.03;56.66
14120;BME280;7138;49.246;9.100;2023-04-26T09:12:24;98869.09;;;18.16;55.27
14120;BME280;7138;49.246;9.100;2023-04-26T09:14:51;98866.97;;;18.30;56.91
14120;BME280;7138;49.246;9.100;2023-04-26T09:17:25;98863.28;;;18.35;54.05
14120;BME280;7138;49.246;9.100;2023-04-26T09:19:51;98873.72;;;18.06;54.01
14120;BME280;7138;49.246;9.100;2023-04-26T09:22:31;98875.06;;;17.90;54.83
14120;BME280;7138;49.246;9.100;2023-04-26T09:24:58;98875.16;;;17.53;54.28
14120;BME280;7138;49.246;9.100;2023-04-26T09:27:35;98873.66;;;17.43;55.25
14120;BME280;7138;49.246;9.100;2023-04-26T09:30:08;98869.31;;;17.42;55.03
14120;BME280;7138;49.246;9.100;2023-04-26T09:32:53;98866.81;;;17.37;55.44
14120;BME280;7138;49.246;9.100;2023-04-26T09:35:31;98866.53;;;17.14;52.21
14120;BME280;7138;49.246;9.100;2023-04-26T09:38:01;98860.78;;;17.00;54.76
14120;BME280;7138;49.246;9.100;2023-04-26T09:40:31;98861.75;;;16.96;56.21
14120;BME280;7138;49.246;9.100;2023-04-26T09:42:59;98856.78;;;16.85;56.90
14120;BME280;7138;49.246;9.100;2023-04-26T09:45:26;98857.63;;;16.86;56.79
14120;BME280;7138;49.246;9.100;2023-04-26T09:47:52;98854.97;;;16.87;55.90
14120;BME280;7138;49.246;9.100;2023-04-26T09:50:30;98847.50;;;16.72;54.59
14120;BME280;7138;49.246;9.100;2023-04-26T09:52:56;98863.34;;;16.65;56.62
14120;BME280;7138;49.246;9.100;2023-04-26T09:55:27;98864.16;;;16.68;56.52
14120;BME280;7138;49.246;9.100;2023-04-26T09:57:54;98863.22;;;16.71;58.21
14120;BME280;7138;49.246;9.100;2023-04-26T10:00:21;98858.72;;;16.76;56.58
14120;BME280;7138;49.246;9.100;2023-04-26T10:02:47;98864.00;;;16.74;55.15
14120;BME280;7138;49.246;9.100;2023-04-26T10:05:13;98867.56;;;16.70;54.47
14120;BME280;7138;49.246;9.100;2023-04-26T10:07:40;98846.84;;;16.63;55.62
14120;BME280;7138;49.246;9.100;2023-04-26T10:10:08;98863.22;;;16.71;55.80
14120;BME280;7138;49.246;9.100;2023-04-26T10:12:39;98866.56;;;16.76;56.18
14120;BME280;7138;49.246;9.100;2023-04-26T10:15:09;98859.53;;;16.79;56.42
14120;BME280;7138;49.246;9.100;2023-04-26T10:17:35;98860.19;;;16.87;56.51
14120;BME280;7138;49.246;9.100;2023-04-26T10:20:03;98851.38;;;16.93;55.96
14120;BME280;7138;49.246;9.100;2023-04-26T10:22:37;98852.94;;;17.00;57.14
14120;BME280;7138;49.246;9.100;2023-04-26T10:25:07;98848.34;;;17.10;56.91
14120;BME280;7138;49.246;9.100;2023-04-26T10:27:49;98849.22;;;17.10;53.52
14120;BME280;7138;49.246;9.100;2023-04-26T10:30:17;98846.09;;;16.94;53.73
14120;BME280;7138;49.246;9.100;2023-04-26T10:33:10;98847.84;;;16.94;53.98
14120;BME280;7138;49.246;9.100;2023-04-26T10:36:06;98838.84;;;17.07;55.08
14120;BME280;7138;49.246;9.100;2023-04-26T10:38:35;98822.88;;;17.18;54.47
14120;BME280;7138;49.246;9.100;2023-04-26T10:41:33;98831.28;;;17.30;52.09
14120;BME280;7138;49.246;9.100;2023-04-26T10:44:38;98824.78;;;17.45;54.19
14120;BME280;7138;49.246;9.100;2023-04-26T10:47:06;98823.09;;;17.42;53.25
14120;BME280;7138;49.246;9.100;2023-04-26T10:49:44;98828.16;;;17.50;53.89
14120;BME280;7138;49.246;9.100;2023-04-26T10:52:14;98832.13;;;17.32;52.28
14120;BME280;7138;49.246;9.100;2023-04-26T10:54:49;98831.50;;;17.21;52.73
14120;BME280;7138;49.246;9.100;2023-04-26T10:57:16;98821.28;;;17.12;53.56
14120;BME280;7138;49.246;9.100;2023-04-26T11:00:27;98819.53;;;17.13;53.66
14120;BME280;7138;49.246;9.100;2023-04-26T11:02:56;98817.63;;;17.19;54.81
14120;BME280;7138;49.246;9.100;2023-04-26T11:05:36;98816.50;;;17.29;52.79
14120;BME280;7138;49.246;9.100;2023-04-26T11:08:04;98815.59;;;17.30;53.39
14120;BME280;7138;49.246;9.100;2023-04-26T11:10:31;98809.25;;;17.39;53.60
14120;BME280;7138;49.246;9.100;2023-04-26T11:13:00;98798.22;;;17.29;52.66
14120;BME280;7138;49.246;9.100;2023-04-26T11:15:30;98805.81;;;17.38;51.50
14120;BME280;7138;49.246;9.100;2023-04-26T11:17:56;98802.97;;;17.46;53.13
14120;BME280;7138;49.246;9.100;2023-04-26T11:20:22;98810.72;;;17.51;52.15
14120;BME280;7138;49.246;9.100;2023-04-26T11:22:53;98805.34;;;17.57;51.97
14120;BME280;7138;49.246;9.100;2023-04-26T11:25:19;98804.34;;;17.61;50.78
14120;BME280;7138;49.246;9.100;2023-04-26T11:27:45;98791.09;;;17.68;53.31
14120;BME280;7138;49.246;9.100;2023-04-26T11:30:12;98784.09;;;17.69;51.64
14120;BME280;7138;49.246;9.100;2023-04-26T11:32:39;98791.25;;;17.62;51.15
14120;BME280;7138;49.246;9.100;2023-04-26T11:35:06;98791.88;;;17.70;52.52
14120;BME280;7138;49.246;9.100;2023-04-26T11:37:33;98795.31;;;17.72;51.28
14120;BME280;7138;49.246;9.100;2023-04-26T11:39:59;98776.88;;;17.77;54.12
14120;BME280;7138;49.246;9.100;2023-04-26T11:42:25;98772.81;;;17.67;51.46
14120;BME280;7138;49.246;9.100;2023-04-26T11:44:52;98772.69;;;17.71;50.51
14120;BME280;7138;49.246;9.100;2023-04-26T11:47:19;98765.69;;;17.72;52.53
14120;BME280;7138;49.246;9.100;2023-04-26T11:49:46;98757.34;;;17.88;54.71
14120;BME280;7138;49.246;9.100;2023-04-26T11:52:12;98756.13;;;17.71;52.28
14120;BME280;7138;49.246;9.100;2023-04-26T11:54:38;98753.16;;;17.83;52.62
14120;BME280;7138;49.246;9.100;2023-04-26T11:57:13;98762.13;;;18.05;54.36
14120;BME280;7138;49.246;9.100;2023-04-26T11:59:40;98749.28;;;18.25;53.10
14120;BME280;7138;49.246;9.100;2023-04-26T12:02:06;98759.25;;;18.40;52.07
14120;BME280;7138;49.246;9.100;2023-04-26T12:04:33;98760.38;;;18.61;51.60
14120;BME280;7138;49.246;9.100;2023-04-26T12:07:02;98762.72;;;18.70;50.75
14120;BME280;7138;49.246;9.100;2023-04-26T12:09:30;98772.59;;;18.62;50.66
14120;BME280;7138;49.246;9.100;2023-04-26T12:11:59;98775.88;;;18.69;50.61
14120;BME280;7138;49.246;9.100;2023-04-26T12:14:32;98752.31;;;18.67;49.00
14120;BME280;7138;49.246;9.100;2023-04-26T12:16:59;98759.00;;;18.77;53.50
14120;BME280;7138;49.246;9.100;2023-04-26T12:19:32;98760.22;;;18.93;49.99
14120;BME280;7138;49.246;9.100;2023-04-26T12:21:59;98755.13;;;19.14;52.69
14120;BME280;7138;49.246;9.100;2023-04-26T12:24:29;98753.16;;;19.20;49.94
14120;BME280;7138;49.246;9.100;2023-04-26T12:26:58;98761.41;;;19.34;50.77
14120;BME280;7138;49.246;9.100;2023-04-26T12:29:25;98761.13;;;19.43;49.07
14120;BME280;7138;49.246;9.100;2023-04-26T12:31:51;98742.91;;;19.63;50.25
14120;BME280;7138;49.246;9.100;2023-04-26T12:34:16;98745.66;;;19.84;49.84
14120;BME280;7138;49.246;9.100;2023-04-26T12:36:43;98750.44;;;19.96;48.70
14120;BME280;7138;49.246;9.100;2023-04-26T12:39:11;98749.28;;;19.80;47.27
14120;BME280;7138;49.246;9.100;2023-04-26T12:41:38;98753.06;;;19.73;51.84
14120;BME280;7138;49.246;9.100;2023-04-26T12:44:06;98752.25;;;19.71;50.31
14120;BME280;7138;49.246;9.100;2023-04-26T12:46:33;98744.16;;;19.77;49.68
14120;BME280;7138;49.246;9.100;2023-04-26T12:48:58;98743.78;;;19.87;48.62
14120;BME280;7138;49.246;9.100;2023-04-26T12:51:24;98740.91;;;19.93;50.21
14120;BME280;7138;49.246;9.100;2023-04-26T12:53:51;98743.69;;;19.89;47.79
14120;BME280;7138;49.246;9.100;2023-04-26T12:56:19;98740.44;;;19.82;48.92
14120;BME280;7138;49.246;9.100;2023-04-26T12:58:45;98748.06;;;19.67;49.76
14120;BME280;7138;49.246;9.100;2023-04-26T13:01:12;98753.44;;;19.37;48.57
14120;BME280;7138;49.246;9.100;2023-04-26T13:03:38;98752.13;;;19.24;48.47
14120;BME280;7138;49.246;9.100;2023-04-26T13:06:04;98750.00;;;19.10;49.35
14120;BME280;7138;49.246;9.100;2023-04-26T13:08:30;98754.41;;;18.84;48.31
14120;BME280;7138;49.246;9.100;2023-04-26T13:10:56;98748.53;;;18.76;50.19
14120;BME280;7138;49.246;9.100;2023-04-26T13:13:24;98757.56;;;18.67;50.06
14120;BME280;7138;49.246;9.100;2023-04-26T13:15:50;98750.84;;;18.60;49.94
14120;BME280;7138;49.246;9.100;2023-04-26T13:18:16;98748.56;;;18.48;48.49
14120;BME280;7138;49.246;9.100;2023-04-26T13:20:42;98748.59;;;18.46;50.43